Time;durP1;ratioP1;P1;durP2;ratioP2;P2;SDS_P1;SDS_P2;PMS_P1;PMS_P2;Temp;Humidity;BMP_temperature;BMP_pressure;BME280_temperature;BME280_humidity;BME280_pressure;Samples;Min_cycle;Max_cycle;Signal;HPM_P1;HPM_P2
2022/05/28 00:02:13;;;;;;;;;;;25.50;33.80;;;;;;5099554;28;1902;-37
2022/05/28 00:04:40;;;;;;;;;;;25.50;33.90;;;;;;5099486;28;952;-36
2022/05/28 00:07:08;;;;;;;;;;;25.50;33.90;;;;;;5098838;28;941;-37
2022/05/28 00:09:34;;;;;;;;;;;25.50;33.90;;;;;;5098416;28;943;-37
2022/05/28 00:12:03;;;;;;;;;;;25.50;34.10;;;;;;5096799;28;964;-37
2022/05/28 00:14:29;;;;;;;;;;;25.60;34.10;;;;;;5099514;28;952;-37
2022/05/28 00:16:56;;;;;;;;;;;25.50;33.90;;;;;;5098966;28;980;-37
2022/05/28 00:19:23;;;;;;;;;;;25.50;33.90;;;;;;5099019;28;953;-37
2022/05/28 00:21:50;;;;;;;;;;;25.60;34.00;;;;;;5098745;28;1977;-37
2022/05/28 00:24:17;;;;;;;;;;;25.60;34.10;;;;;;5099311;28;948;-37
2022/05/28 00:26:44;;;;;;;;;;;25.50;34.10;;;;;;5098864;28;976;-37
2022/05/28 00:29:12;;;;;;;;;;;25.50;34.10;;;;;;5098756;28;956;-37
2022/05/28 00:31:39;;;;;;;;;;;25.50;34.20;;;;;;5099595;28;996;-37
2022/05/28 00:34:06;;;;;;;;;;;25.60;34.20;;;;;;5099137;28;987;-37
2022/05/28 00:36:32;;;;;;;;;;;25.60;34.20;;;;;;5099093;28;1055;-37
2022/05/28 00:38:59;;;;;;;;;;;25.50;34.10;;;;;;5099314;28;941;-37
2022/05/28 00:41:25;;;;;;;;;;;25.50;34.20;;;;;;5099315;28;1007;-37
2022/05/28 00:43:52;;;;;;;;;;;25.60;34.20;;;;;;5098451;28;1902;-37
2022/05/28 00:46:23;;;;;;;;;;;25.50;34.20;;;;;;5099465;28;1000;-37
2022/05/28 00:48:52;;;;;;;;;;;25.50;34.20;;;;;;5097145;28;996;-37
2022/05/28 00:51:21;;;;;;;;;;;25.50;34.30;;;;;;5098641;28;964;-37
2022/05/28 00:53:48;;;;;;;;;;;25.60;34.40;;;;;;5099271;28;1003;-37
2022/05/28 00:56:15;;;;;;;;;;;25.50;34.40;;;;;;5099267;28;991;-37
2022/05/28 00:58:42;;;;;;;;;;;25.60;34.30;;;;;;5098771;28;1011;-37
2022/05/28 01:01:10;;;;;;;;;;;25.60;34.40;;;;;;5098758;28;1270;-36
2022/05/28 01:03:42;;;;;;;;;;;25.50;34.40;;;;;;5099176;28;1910;-37
2022/05/28 01:06:15;;;;;;;;;;;25.50;34.40;;;;;;5099134;28;1011;-37
2022/05/28 01:08:45;;;;;;;;;;;25.50;34.60;;;;;;5098396;28;944;-37
2022/05/28 01:11:19;;;;;;;;;;;25.60;34.60;;;;;;5098163;28;994;-36
2022/05/28 01:13:49;;;;;;;;;;;25.60;34.50;;;;;;5097092;28;956;-37
2022/05/28 01:16:20;;;;;;;;;;;25.60;34.60;;;;;;5096804;28;929;-36
2022/05/28 01:18:50;;;;;;;;;;;25.60;34.50;;;;;;5098067;28;932;-36
2022/05/28 01:21:26;;;;;;;;;;;25.60;34.60;;;;;;5098598;28;1036;-37
2022/05/28 01:23:53;;;;;;;;;;;25.60;34.60;;;;;;5098434;28;1910;-37
2022/05/28 01:26:23;;;;;;;;;;;25.60;34.50;;;;;;5098631;28;1773;-37
2022/05/28 01:28:53;;;;;;;;;;;25.60;34.60;;;;;;5098373;28;964;-37
2022/05/28 01:31:21;;;;;;;;;;;25.60;34.60;;;;;;5098157;28;1035;-37
2022/05/28 01:33:48;;;;;;;;;;;25.60;34.70;;;;;;5098335;28;952;-37
2022/05/28 01:36:17;;;;;;;;;;;25.60;34.60;;;;;;5098271;28;948;-37
2022/05/28 01:38:45;;;;;;;;;;;25.60;34.80;;;;;;5098065;28;984;-36
2022/05/28 01:41:12;;;;;;;;;;;25.60;34.70;;;;;;5097749;28;956;-37
2022/05/28 01:43:40;;;;;;;;;;;25.60;34.70;;;;;;5097755;28;1890;-36
2022/05/28 01:46:09;;;;;;;;;;;25.60;34.80;;;;;;5097323;28;1159;-37
2022/05/28 01:48:37;;;;;;;;;;;25.60;34.70;;;;;;5096337;28;999;-37
2022/05/28 01:51:04;;;;;;;;;;;25.60;34.70;;;;;;5096803;28;1002;-37
2022/05/28 01:56:16;;;;;;;;;;;25.60;35.00;;;;;;5097179;28;876;-37
2022/05/28 01:58:43;;;;;;;;;;;25.60;35.00;;;;;;5097771;28;1014;-37
2022/05/28 02:01:11;;;;;;;;;;;25.50;35.00;;;;;;5097953;28;1147;-37
2022/05/28 02:03:40;;;;;;;;;;;25.50;34.90;;;;;;5097999;28;1905;-37
2022/05/28 02:06:06;;;;;;;;;;;25.60;35.10;;;;;;5098124;28;962;-36
2022/05/28 02:08:36;;;;;;;;;;;25.60;35.10;;;;;;5098084;28;1039;-37
2022/05/28 02:11:09;;;;;;;;;;;25.60;35.00;;;;;;5097092;28;1011;-37
2022/05/28 02:13:41;;;;;;;;;;;25.60;35.00;;;;;;5096160;28;1030;-37
2022/05/28 02:16:12;;;;;;;;;;;25.60;35.00;;;;;;5097145;28;1031;-37
2022/05/28 02:18:46;;;;;;;;;;;25.60;35.10;;;;;;5097528;28;1007;-37
2022/05/28 02:21:16;;;;;;;;;;;25.60;35.10;;;;;;5097596;28;1438;-37
2022/05/28 02:23:45;;;;;;;;;;;25.60;35.10;;;;;;5098049;28;1988;-37
2022/05/28 02:26:14;;;;;;;;;;;25.60;35.10;;;;;;5098093;28;1011;-37
2022/05/28 02:31:54;;;;;;;;;;;25.60;35.10;;;;;;5096698;28;1181;-36
2022/05/28 02:34:22;;;;;;;;;;;25.60;35.00;;;;;;5096873;28;932;-37
2022/05/28 02:36:49;;;;;;;;;;;25.60;35.10;;;;;;5097447;28;1076;-37
2022/05/28 02:39:16;;;;;;;;;;;25.60;35.10;;;;;;5097397;28;948;-37
2022/05/28 02:41:42;;;;;;;;;;;25.50;35.10;;;;;;5097196;28;1011;-37
2022/05/28 02:44:09;;;;;;;;;;;25.50;35.10;;;;;;5096749;28;1980;-37
2022/05/28 02:46:36;;;;;;;;;;;25.50;35.10;;;;;;5098042;28;920;-37
2022/05/28 02:49:03;;;;;;;;;;;25.50;35.20;;;;;;5094726;28;1003;-37
2022/05/28 02:51:31;;;;;;;;;;;25.50;35.30;;;;;;5097218;28;984;-37
2022/05/28 02:53:58;;;;;;;;;;;25.50;35.30;;;;;;5101069;28;1046;-37
2022/05/28 02:56:25;;;;;;;;;;;25.50;35.30;;;;;;5100050;28;1040;-37
2022/05/28 02:58:51;;;;;;;;;;;25.50;35.30;;;;;;5100953;28;1019;-37
2022/05/28 03:01:20;;;;;;;;;;;25.60;35.40;;;;;;5101207;28;1138;-37
2022/05/28 03:03:47;;;;;;;;;;;25.60;35.30;;;;;;5100637;28;1902;-37
2022/05/28 03:06:14;;;;;;;;;;;25.60;35.30;;;;;;5100669;28;1186;-37
2022/05/28 03:08:42;;;;;;;;;;;25.60;35.20;;;;;;5100495;28;1008;-37
2022/05/28 03:11:09;;;;;;;;;;;25.60;35.20;;;;;;5099407;28;991;-37
2022/05/28 03:13:36;;;;;;;;;;;25.60;35.30;;;;;;5099798;28;944;-37
2022/05/28 03:16:03;;;;;;;;;;;25.60;35.30;;;;;;5100055;28;923;-37
2022/05/28 03:18:30;;;;;;;;;;;25.60;35.40;;;;;;5100190;28;1015;-37
2022/05/28 03:20:57;;;;;;;;;;;25.60;35.30;;;;;;5100103;28;864;-37
2022/05/28 03:23:23;;;;;;;;;;;25.60;35.30;;;;;;5100798;28;1983;-37
2022/05/28 03:25:51;;;;;;;;;;;25.60;35.30;;;;;;5100519;28;916;-37
2022/05/28 03:28:18;;;;;;;;;;;25.60;35.30;;;;;;5100163;28;983;-37
2022/05/28 03:30:45;;;;;;;;;;;25.60;35.30;;;;;;5100477;28;928;-37
2022/05/28 03:33:12;;;;;;;;;;;25.60;35.30;;;;;;5100304;28;992;-37
2022/05/28 03:35:40;;;;;;;;;;;25.60;35.10;;;;;;5099629;28;1003;-37
2022/05/28 03:38:07;;;;;;;;;;;25.60;35.30;;;;;;5100315;28;966;-37
2022/05/28 03:40:34;;;;;;;;;;;25.60;35.20;;;;;;5099276;28;992;-37
2022/05/28 03:43:02;;;;;;;;;;;25.60;35.30;;;;;;5099179;28;1910;-37
2022/05/28 03:45:29;;;;;;;;;;;25.60;35.40;;;;;;5099696;28;1022;-37
2022/05/28 03:47:56;;;;;;;;;;;25.60;35.40;;;;;;5098989;28;1066;-37
2022/05/28 03:50:23;;;;;;;;;;;25.60;35.50;;;;;;5099143;28;996;-36
2022/05/28 03:52:50;;;;;;;;;;;25.60;35.50;;;;;;5099823;28;948;-37
2022/05/28 03:55:16;;;;;;;;;;;25.60;35.50;;;;;;5100018;28;1010;-37
2022/05/28 03:57:45;;;;;;;;;;;25.60;35.50;;;;;;5100227;28;984;-37
2022/05/28 04:00:14;;;;;;;;;;;25.60;35.60;;;;;;5099231;28;1384;-37
2022/05/28 04:02:41;;;;;;;;;;;25.60;35.50;;;;;;5099348;28;1967;-37
2022/05/28 04:05:08;;;;;;;;;;;25.60;35.50;;;;;;5099890;28;1011;-37
2022/05/28 04:07:35;;;;;;;;;;;25.60;35.50;;;;;;5100122;28;972;-37
2022/05/28 04:10:02;;;;;;;;;;;25.60;35.50;;;;;;5099455;28;948;-37
2022/05/28 04:12:28;;;;;;;;;;;25.70;35.60;;;;;;5099749;28;1008;-37
2022/05/28 04:14:55;;;;;;;;;;;25.60;35.40;;;;;;5098518;28;1028;-37
2022/05/28 04:17:23;;;;;;;;;;;25.70;35.50;;;;;;5099727;28;1027;-37
2022/05/28 04:19:50;;;;;;;;;;;25.70;35.40;;;;;;5099939;28;1023;-37
2022/05/28 04:22:17;;;;;;;;;;;25.60;35.50;;;;;;5099652;28;992;-37
2022/05/28 04:24:44;;;;;;;;;;;25.60;35.50;;;;;;5099580;28;1906;-36
2022/05/28 04:27:10;;;;;;;;;;;25.60;35.50;;;;;;5100038;28;996;-37
2022/05/28 04:29:37;;;;;;;;;;;25.60;35.50;;;;;;5099692;28;1036;-37
2022/05/28 04:32:04;;;;;;;;;;;25.60;35.60;;;;;;5099726;28;1038;-37
2022/05/28 04:34:32;;;;;;;;;;;25.60;35.50;;;;;;5099513;28;996;-37
2022/05/28 04:36:59;;;;;;;;;;;25.60;36.70;;;;;;5099363;28;1023;-37
2022/05/28 04:39:26;;;;;;;;;;;25.60;35.60;;;;;;5099604;28;952;-37
2022/05/28 04:41:53;;;;;;;;;;;25.60;35.60;;;;;;5098998;28;940;-36
2022/05/28 04:44:19;;;;;;;;;;;25.70;35.60;;;;;;5099056;28;1897;-37
2022/05/28 04:46:46;;;;;;;;;;;25.70;35.60;;;;;;5099258;28;996;-37
2022/05/28 04:49:13;;;;;;;;;;;25.70;35.60;;;;;;5098278;28;1023;-37
2022/05/28 04:51:41;;;;;;;;;;;25.70;35.50;;;;;;5099101;28;879;-37
2022/05/28 04:54:08;;;;;;;;;;;25.60;35.50;;;;;;5098531;28;952;-37
2022/05/28 04:56:34;;;;;;;;;;;25.60;35.50;;;;;;5098134;28;956;-37
2022/05/28 04:59:01;;;;;;;;;;;25.70;35.50;;;;;;5098240;28;1161;-36
2022/05/28 05:01:28;;;;;;;;;;;25.70;35.60;;;;;;5098189;28;932;-36
2022/05/28 05:03:55;;;;;;;;;;;25.60;35.50;;;;;;5097709;28;1905;-37
2022/05/28 05:06:22;;;;;;;;;;;25.70;35.60;;;;;;5097844;28;1015;-37
2022/05/28 05:08:50;;;;;;;;;;;25.70;35.70;;;;;;5097253;28;1016;-37
2022/05/28 05:11:17;;;;;;;;;;;25.60;35.80;;;;;;5098254;28;930;-36
2022/05/28 05:13:43;;;;;;;;;;;25.60;35.70;;;;;;5098672;28;1015;-37
2022/05/28 05:16:10;;;;;;;;;;;25.70;35.70;;;;;;5097563;28;929;-37
2022/05/28 05:18:37;;;;;;;;;;;25.60;35.80;;;;;;5098407;28;975;-37
2022/05/28 05:21:04;;;;;;;;;;;25.60;35.70;;;;;;5096635;28;960;-37
2022/05/28 05:23:31;;;;;;;;;;;25.70;35.80;;;;;;5059571;28;1979;-37
2022/05/28 05:25:59;;;;;;;;;;;25.70;35.80;;;;;;5098439;28;1038;-37
2022/05/28 05:28:26;;;;;;;;;;;25.60;36.00;;;;;;5098365;28;1127;-37
2022/05/28 05:30:52;;;;;;;;;;;25.70;35.70;;;;;;5097883;28;975;-37
2022/05/28 05:33:19;;;;;;;;;;;25.70;35.70;;;;;;5097558;28;1003;-37
2022/05/28 05:35:46;;;;;;;;;;;25.70;35.80;;;;;;5097276;28;1008;-37
2022/05/28 05:38:12;;;;;;;;;;;25.70;35.70;;;;;;5098404;28;988;-37
2022/05/28 05:40:39;;;;;;;;;;;25.80;35.80;;;;;;5097882;28;1006;-38
2022/05/28 05:43:07;;;;;;;;;;;25.70;35.80;;;;;;5098074;28;1025;-37
2022/05/28 05:45:34;;;;;;;;;;;25.70;35.80;;;;;;5097275;28;1976;-37
2022/05/28 05:48:01;;;;;;;;;;;25.70;35.90;;;;;;5097662;28;1018;-37
2022/05/28 05:50:28;;;;;;;;;;;25.70;35.90;;;;;;5097590;28;936;-37
2022/05/28 05:52:55;;;;;;;;;;;25.70;35.90;;;;;;5097532;28;1019;-37
2022/05/28 05:55:21;;;;;;;;;;;25.70;35.80;;;;;;5097045;28;972;-37
2022/05/28 05:57:48;;;;;;;;;;;25.90;35.50;;;;;;5097816;28;1008;-36
2022/05/28 06:00:17;;;;;;;;;;;25.90;35.40;;;;;;5096622;28;1141;-37
2022/05/28 06:02:44;;;;;;;;;;;25.80;35.50;;;;;;5096610;28;1845;-47
2022/05/28 06:05:11;;;;;;;;;;;25.90;36.00;;;;;;5095596;28;1902;-47
2022/05/28 06:07:39;;;;;;;;;;;26.00;35.50;;;;;;5097315;28;1039;-48
2022/05/28 06:10:07;;;;;;;;;;;26.00;35.40;;;;;;5095650;28;980;-47
2022/05/28 06:12:34;;;;;;;;;;;26.00;35.80;;;;;;5095579;28;999;-47
2022/05/28 06:15:01;;;;;;;;;;;25.90;35.50;;;;;;5094756;28;1015;-48
2022/05/28 06:17:29;;;;;;;;;;;25.90;35.70;;;;;;5095133;28;972;-47
2022/05/28 06:19:55;;;;;;;;;;;25.90;35.60;;;;;;5097086;28;909;-48
2022/05/28 06:22:22;;;;;;;;;;;25.90;35.60;;;;;;5096721;28;1015;-36
2022/05/28 06:24:49;;;;;;;;;;;26.10;35.70;;;;;;5094971;28;1910;-36
2022/05/28 06:27:16;;;;;;;;;;;26.10;35.90;;;;;;5099494;28;1011;-35
2022/05/28 06:29:42;;;;;;;;;;;26.00;35.70;;;;;;5099992;28;1011;-37
2022/05/28 06:32:09;;;;;;;;;;;26.10;35.60;;;;;;5100187;28;1031;-36
2022/05/28 06:34:37;;;;;;;;;;;26.10;35.70;;;;;;5099970;28;1008;-36
2022/05/28 06:37:07;;;;;;;;;;;26.10;35.90;;;;;;5099917;28;1004;-49
2022/05/28 06:39:34;;;;;;;;;;;26.20;35.90;;;;;;5099494;28;948;-48
2022/05/28 06:42:00;;;;;;;;;;;26.10;35.80;;;;;;5100084;28;1008;-48
2022/05/28 06:44:27;;;;;;;;;;;26.10;36.50;;;;;;5098801;28;1898;-48
2022/05/28 06:46:54;;;;;;;;;;;26.10;36.30;;;;;;5099692;28;966;-48
2022/05/28 06:49:20;;;;;;;;;;;26.10;36.10;;;;;;5099348;28;944;-48
2022/05/28 06:51:49;;;;;;;;;;;26.00;36.30;;;;;;5100862;28;1023;-47
2022/05/28 06:54:16;;;;;;;;;;;26.00;36.20;;;;;;5099395;28;707;-47
2022/05/28 06:56:42;;;;;;;;;;;26.10;36.00;;;;;;5098937;28;996;-47
2022/05/28 06:59:09;;;;;;;;;;;26.20;36.00;;;;;;5099046;28;1135;-47
2022/05/28 07:01:36;;;;;;;;;;;26.30;35.90;;;;;;5099628;28;997;-48
2022/05/28 07:04:04;;;;;;;;;;;26.10;36.10;;;;;;5100159;28;1992;-47
2022/05/28 07:06:32;;;;;;;;;;;26.10;36.70;;;;;;5098681;28;949;-47
2022/05/28 07:09:00;;;;;;;;;;;26.00;36.60;;;;;;5100042;28;1026;-47
2022/05/28 07:11:27;;;;;;;;;;;26.00;36.50;;;;;;5098148;28;1023;-47
2022/05/28 07:13:54;;;;;;;;;;;26.00;36.60;;;;;;5097866;28;1121;-47
2022/05/28 07:16:20;;;;;;;;;;;26.00;36.60;;;;;;5097579;28;1011;-47
2022/05/28 07:18:47;;;;;;;;;;;26.10;36.70;;;;;;5097003;28;933;-48
2022/05/28 07:21:14;;;;;;;;;;;26.00;36.50;;;;;;5099281;28;982;-47
2022/05/28 07:23:41;;;;;;;;;;;26.10;36.70;;;;;;5097921;28;964;-47
2022/05/28 07:26:10;;;;;;;;;;;26.00;36.80;;;;;;5097653;28;1906;-46
2022/05/28 07:28:38;;;;;;;;;;;26.00;36.50;;;;;;5097220;28;964;-43
2022/05/28 07:31:05;;;;;;;;;;;26.00;36.60;;;;;;5097488;28;987;-44
2022/05/28 07:33:33;;;;;;;;;;;26.00;36.50;;;;;;5098175;28;899;-40
2022/05/28 07:36:00;;;;;;;;;;;26.00;36.50;;;;;;5096276;28;932;-47
2022/05/28 07:38:28;;;;;;;;;;;26.00;36.50;;;;;;5096965;28;1006;-47
2022/05/28 07:40:55;;;;;;;;;;;26.00;36.60;;;;;;5098142;28;999;-48
2022/05/28 07:43:23;;;;;;;;;;;26.00;36.50;;;;;;5099270;28;1008;-48
2022/05/28 07:45:50;;;;;;;;;;;26.00;36.70;;;;;;5097955;28;1915;-48
2022/05/28 07:48:17;;;;;;;;;;;26.00;36.50;;;;;;5097769;28;966;-47
2022/05/28 07:50:44;;;;;;;;;;;26.00;36.60;;;;;;5097291;28;1004;-48
2022/05/28 07:53:12;;;;;;;;;;;26.00;36.50;;;;;;5097521;28;1018;-48
2022/05/28 07:55:38;;;;;;;;;;;26.00;36.70;;;;;;5096224;28;984;-47
2022/05/28 07:58:06;;;;;;;;;;;25.90;36.50;;;;;;5096951;28;987;-47
2022/05/28 08:00:37;;;;;;;;;;;26.00;36.50;;;;;;5095988;28;1095;-47
2022/05/28 08:03:03;;;;;;;;;;;26.00;36.70;;;;;;5096239;28;1007;-47
2022/05/28 08:05:30;;;;;;;;;;;26.00;36.80;;;;;;5095772;28;1906;-47
2022/05/28 08:07:57;;;;;;;;;;;26.00;36.80;;;;;;5096177;28;1015;-47
2022/05/28 08:10:24;;;;;;;;;;;26.00;36.70;;;;;;5096485;28;972;-47
2022/05/28 08:12:51;;;;;;;;;;;26.00;36.80;;;;;;5096553;28;996;-48
2022/05/28 08:15:18;;;;;;;;;;;26.00;36.50;;;;;;5095082;28;1019;-47
2022/05/28 08:17:46;;;;;;;;;;;26.10;36.80;;;;;;5094912;28;935;-47
2022/05/28 08:20:13;;;;;;;;;;;26.00;36.70;;;;;;5095407;28;952;-47
2022/05/28 08:25:24;;;;;;;;;;;26.00;36.80;;;;;;5094093;28;1990;-47
2022/05/28 08:27:51;;;;;;;;;;;26.00;36.80;;;;;;5094245;28;929;-47
2022/05/28 08:30:17;;;;;;;;;;;26.00;36.80;;;;;;5094232;28;960;-47
2022/05/28 08:32:46;;;;;;;;;;;26.00;37.40;;;;;;5095360;28;1015;-47
2022/05/28 08:35:12;;;;;;;;;;;26.00;36.70;;;;;;5094757;28;928;-48
2022/05/28 08:37:39;;;;;;;;;;;26.10;36.80;;;;;;5096244;28;1023;-48
2022/05/28 08:40:07;;;;;;;;;;;26.00;36.80;;;;;;5095119;28;940;-47
2022/05/28 08:42:33;;;;;;;;;;;26.00;36.80;;;;;;5095958;28;1116;-47
2022/05/28 08:45:06;;;;;;;;;;;26.00;36.70;;;;;;5094874;28;1902;-48
2022/05/28 08:47:34;;;;;;;;;;;26.00;36.80;;;;;;5095907;28;945;-47
2022/05/28 08:50:02;;;;;;;;;;;26.00;36.80;;;;;;5094563;28;944;-46
2022/05/28 08:52:31;;;;;;;;;;;26.00;36.70;;;;;;5094998;28;925;-48
2022/05/28 08:55:00;;;;;;;;;;;26.00;37.00;;;;;;5095995;28;1016;-48
2022/05/28 08:57:31;;;;;;;;;;;26.00;36.90;;;;;;5096466;28;979;-48
2022/05/28 08:59:59;;;;;;;;;;;26.00;36.80;;;;;;5095260;28;1035;-47
2022/05/28 09:02:32;;;;;;;;;;;26.00;36.90;;;;;;5095242;28;1027;-46
2022/05/28 09:05:01;;;;;;;;;;;26.00;37.00;;;;;;5106677;28;1913;-47
2022/05/28 09:07:30;;;;;;;;;;;26.00;36.90;;;;;;5116862;28;1054;-48
2022/05/28 09:09:57;;;;;;;;;;;26.00;36.70;;;;;;5116065;28;1051;-47
2022/05/28 09:12:26;;;;;;;;;;;26.00;36.90;;;;;;5114763;28;1031;-48
2022/05/28 09:14:53;;;;;;;;;;;26.10;36.70;;;;;;5114518;28;944;-47
2022/05/28 09:17:27;;;;;;;;;;;26.00;36.80;;;;;;5115906;28;995;-47
2022/05/28 09:19:55;;;;;;;;;;;26.00;36.90;;;;;;5113984;28;904;-47
2022/05/28 09:22:23;;;;;;;;;;;26.00;36.70;;;;;;5115460;28;1008;-48
2022/05/28 09:24:51;;;;;;;;;;;26.00;36.80;;;;;;5114833;28;1914;-47
2022/05/28 09:27:21;;;;;;;;;;;26.00;36.70;;;;;;5114571;28;940;-46
2022/05/28 09:30:09;;;;;;;;;;;26.00;36.80;;;;;;5115438;28;1834;-45
2022/05/28 09:32:45;;;;;;;;;;;26.00;36.80;;;;;;5110009;28;1347;-45
2022/05/28 09:35:16;;;;;;;;;;;26.00;36.90;;;;;;5114998;28;980;-45
2022/05/28 09:37:52;;;;;;;;;;;26.00;36.80;;;;;;5116747;28;957;-46
2022/05/28 09:40:21;;;;;;;;;;;26.00;36.70;;;;;;5117228;28;936;-48
2022/05/28 09:42:58;;;;;;;;;;;26.00;36.80;;;;;;5117045;28;1024;-47
2022/05/28 09:45:29;;;;;;;;;;;26.00;36.70;;;;;;5116404;28;1972;-47
2022/05/28 09:47:55;;;;;;;;;;;26.10;36.80;;;;;;5116407;28;997;-47
2022/05/28 09:50:24;;;;;;;;;;;26.10;36.70;;;;;;5116093;28;964;-45
2022/05/28 09:56:03;;;;;;;;;;;26.00;36.90;;;;;;5115636;28;625;-45
2022/05/28 09:58:31;;;;;;;;;;;26.00;36.90;;;;;;5116377;28;990;-45
2022/05/28 10:01:05;;;;;;;;;;;26.10;36.90;;;;;;5116370;28;1022;-41
2022/05/28 10:06:17;;;;;;;;;;;26.00;36.80;;;;;;5115793;28;1986;-41
2022/05/28 10:08:44;;;;;;;;;;;26.00;36.90;;;;;;5116280;28;994;-41
2022/05/28 10:11:15;;;;;;;;;;;26.00;36.70;;;;;;5116403;28;1039;-42
2022/05/28 10:13:43;;;;;;;;;;;26.00;36.80;;;;;;5116400;28;950;-40
2022/05/28 10:16:11;;;;;;;;;;;26.10;36.80;;;;;;5115848;28;1008;-42
2022/05/28 10:18:38;;;;;;;;;;;26.10;38.00;;;;;;5115057;28;1015;-45
2022/05/28 10:21:08;;;;;;;;;;;26.10;36.50;;;;;;5114944;28;1020;-40
2022/05/28 10:23:35;;;;;;;;;;;26.10;36.60;;;;;;5115277;28;1012;-42
2022/05/28 10:26:02;;;;;;;;;;;26.20;36.60;;;;;;5115461;28;1917;-42
2022/05/28 10:28:32;;;;;;;;;;;26.20;36.30;;;;;;5114637;28;862;-44
2022/05/28 10:30:59;;;;;;;;;;;26.20;36.30;;;;;;5114859;28;945;-44
2022/05/28 10:33:27;;;;;;;;;;;26.20;36.40;;;;;;5115724;28;1027;-44
2022/05/28 10:36:06;;;;;;;;;;;26.20;36.40;;;;;;5115422;28;980;-44
2022/05/28 10:38:32;;;;;;;;;;;26.20;36.50;;;;;;5115926;28;976;-44
2022/05/28 10:41:01;;;;;;;;;;;26.20;36.60;;;;;;5115459;28;1027;-44
2022/05/28 10:43:29;;;;;;;;;;;26.20;36.60;;;;;;5116574;28;1017;-42
2022/05/28 10:46:00;;;;;;;;;;;26.20;37.70;;;;;;5114650;28;1909;-44
2022/05/28 10:48:33;;;;;;;;;;;26.20;36.50;;;;;;5114839;28;998;-44
2022/05/28 10:51:04;;;;;;;;;;;26.20;36.40;;;;;;5115360;28;944;-44
2022/05/28 10:53:40;;;;;;;;;;;26.20;36.30;;;;;;5115225;28;1004;-44
2022/05/28 10:56:19;;;;;;;;;;;26.30;36.50;;;;;;5115030;28;1004;-44
2022/05/28 10:58:54;;;;;;;;;;;26.30;36.60;;;;;;5114791;28;925;-45
2022/05/28 11:01:31;;;;;;;;;;;26.20;36.50;;;;;;5115005;28;1125;-44
2022/05/28 11:04:16;;;;;;;;;;;26.30;36.50;;;;;;5113471;28;1020;-44
2022/05/28 11:06:50;;;;;;;;;;;26.20;36.20;;;;;;5099812;28;2008;-44
2022/05/28 11:09:22;;;;;;;;;;;26.30;36.30;;;;;;5113393;28;1041;-44
2022/05/28 11:11:54;;;;;;;;;;;26.30;36.70;;;;;;5114879;28;888;-44
2022/05/28 11:14:28;;;;;;;;;;;26.30;36.40;;;;;;5118791;28;969;-44
2022/05/28 11:17:03;;;;;;;;;;;26.30;36.70;;;;;;5118700;28;1040;-44
2022/05/28 11:19:38;;;;;;;;;;;26.20;36.40;;;;;;5117160;28;1790;-44
2022/05/28 11:22:23;;;;;;;;;;;26.30;36.50;;;;;;5118824;28;972;-43
2022/05/28 11:24:54;;;;;;;;;;;26.30;36.30;;;;;;5118817;28;945;-44
2022/05/28 11:27:24;;;;;;;;;;;26.30;36.40;;;;;;5118326;28;1914;-44
2022/05/28 11:29:56;;;;;;;;;;;26.30;36.20;;;;;;5117788;28;933;-45
2022/05/28 11:32:26;;;;;;;;;;;26.30;36.30;;;;;;5118224;28;981;-44
2022/05/28 11:34:55;;;;;;;;;;;26.30;36.20;;;;;;5119756;28;964;-43
2022/05/28 11:37:24;;;;;;;;;;;26.30;36.40;;;;;;5118371;28;944;-44
2022/05/28 11:39:56;;;;;;;;;;;26.30;36.40;;;;;;5119128;28;1015;-44
2022/05/28 11:42:29;;;;;;;;;;;26.30;36.10;;;;;;5118389;28;992;-44
2022/05/28 11:45:07;;;;;;;;;;;26.30;36.40;;;;;;5118486;28;1032;-44
2022/05/28 11:47:40;;;;;;;;;;;26.30;36.30;;;;;;5118327;28;1009;-44
2022/05/28 11:52:55;;;;;;;;;;;26.30;36.30;;;;;;5117836;28;868;-44
2022/05/28 11:55:23;;;;;;;;;;;26.30;36.30;;;;;;5117636;28;976;-43
2022/05/28 11:57:52;;;;;;;;;;;26.30;36.40;;;;;;5118348;28;988;-44
2022/05/28 12:00:19;;;;;;;;;;;26.30;36.30;;;;;;5117873;28;1043;-44
2022/05/28 12:02:50;;;;;;;;;;;26.30;36.50;;;;;;5118579;28;981;-44
2022/05/28 12:05:18;;;;;;;;;;;26.30;36.20;;;;;;5117839;28;1982;-43
2022/05/28 12:07:45;;;;;;;;;;;26.30;36.20;;;;;;5119391;28;1058;-44
2022/05/28 12:10:17;;;;;;;;;;;26.30;36.10;;;;;;5118123;28;936;-44
2022/05/28 12:12:52;;;;;;;;;;;26.30;37.30;;;;;;5117509;28;917;-45
2022/05/28 12:15:24;;;;;;;;;;;26.30;36.10;;;;;;5117375;28;913;-45
2022/05/28 12:18:01;;;;;;;;;;;26.40;36.00;;;;;;5118102;28;983;-44
2022/05/28 12:20:29;;;;;;;;;;;26.30;36.30;;;;;;5116595;28;944;-44
2022/05/28 12:22:57;;;;;;;;;;;26.40;36.30;;;;;;5117600;28;1033;-44
2022/05/28 12:25:32;;;;;;;;;;;26.40;36.30;;;;;;5117056;28;1902;-44
2022/05/28 12:28:08;;;;;;;;;;;26.40;36.40;;;;;;5117821;28;933;-44
2022/05/28 12:30:53;;;;;;;;;;;26.40;36.60;;;;;;5117149;28;945;-43
2022/05/28 12:33:26;;;;;;;;;;;26.40;35.90;;;;;;5117042;28;1108;-44
2022/05/28 12:35:58;;;;;;;;;;;26.40;35.80;;;;;;5117649;28;985;-44
2022/05/28 12:38:40;;;;;;;;;;;26.40;35.70;;;;;;5117206;28;1170;-44
2022/05/28 12:41:15;;;;;;;;;;;26.40;35.80;;;;;;5117461;28;968;-44
2022/05/28 12:43:45;;;;;;;;;;;26.40;35.80;;;;;;5117115;28;1003;-44
2022/05/28 12:46:13;;;;;;;;;;;26.40;36.00;;;;;;5117274;28;1905;-44
2022/05/28 12:48:42;;;;;;;;;;;26.40;36.30;;;;;;5115343;28;1028;-44
2022/05/28 12:51:17;;;;;;;;;;;26.40;36.10;;;;;;5115351;28;993;-44
2022/05/28 12:53:51;;;;;;;;;;;26.40;36.00;;;;;;5116371;28;1009;-44
2022/05/28 12:56:23;;;;;;;;;;;26.40;36.00;;;;;;5115982;28;884;-44
2022/05/28 12:58:50;;;;;;;;;;;26.40;36.00;;;;;;5115168;28;896;-38
2022/05/28 13:01:20;;;;;;;;;;;26.40;36.00;;;;;;5115730;28;1163;-37
2022/05/28 13:03:49;;;;;;;;;;;26.40;36.00;;;;;;5114229;28;898;-38
2022/05/28 13:06:21;;;;;;;;;;;26.40;36.00;;;;;;5115005;28;1913;-38
2022/05/28 13:08:53;;;;;;;;;;;26.40;35.90;;;;;;5115712;28;964;-44
2022/05/28 13:11:27;;;;;;;;;;;26.40;36.00;;;;;;5116472;28;980;-44
2022/05/28 13:14:04;;;;;;;;;;;26.40;35.90;;;;;;5115149;28;968;-45
2022/05/28 13:16:40;;;;;;;;;;;26.40;36.00;;;;;;5114624;28;964;-44
2022/05/28 13:19:26;;;;;;;;;;;26.40;36.00;;;;;;5113444;28;937;-44
2022/05/28 13:21:59;;;;;;;;;;;26.40;35.90;;;;;;5114938;28;1015;-44
2022/05/28 13:24:55;;;;;;;;;;;26.40;35.90;;;;;;5115884;28;1008;-42
2022/05/28 13:27:27;;;;;;;;;;;26.40;36.20;;;;;;5116297;28;1980;-44
2022/05/28 13:30:15;;;;;;;;;;;26.40;36.00;;;;;;5115639;28;922;-45
2022/05/28 13:32:45;;;;;;;;;;;26.40;35.90;;;;;;5109233;28;1038;-44
2022/05/28 13:35:15;;;;;;;;;;;26.40;36.00;;;;;;5113882;28;944;-44
2022/05/28 13:37:43;;;;;;;;;;;26.40;36.00;;;;;;5115535;28;1039;-44
2022/05/28 13:40:12;;;;;;;;;;;26.40;36.10;;;;;;5115302;28;1020;-44
2022/05/28 13:42:39;;;;;;;;;;;26.40;36.10;;;;;;5112749;28;983;-44
2022/05/28 13:45:08;;;;;;;;;;;26.40;36.10;;;;;;5114064;28;996;-44
2022/05/28 13:47:36;;;;;;;;;;;26.40;36.30;;;;;;5113222;28;1996;-44
2022/05/28 13:50:05;;;;;;;;;;;26.50;36.10;;;;;;5115508;28;933;-45
2022/05/28 13:52:34;;;;;;;;;;;26.50;36.10;;;;;;5114730;28;1008;-44
2022/05/28 13:55:03;;;;;;;;;;;26.50;36.20;;;;;;5115053;28;1031;-45
2022/05/28 13:57:37;;;;;;;;;;;26.40;36.10;;;;;;5114804;28;1001;-45
2022/05/28 14:00:05;;;;;;;;;;;26.50;36.20;;;;;;5114630;28;1129;-44
2022/05/28 14:02:32;;;;;;;;;;;26.40;36.20;;;;;;5115031;28;2127;-44
2022/05/28 14:05:00;;;;;;;;;;;26.50;36.20;;;;;;5114335;28;936;-43
2022/05/28 14:07:28;;;;;;;;;;;26.50;36.20;;;;;;5115129;28;1991;-44
2022/05/28 14:09:56;;;;;;;;;;;26.50;36.20;;;;;;5114725;28;981;-44
2022/05/28 14:12:28;;;;;;;;;;;26.50;36.20;;;;;;5113628;28;985;-44
2022/05/28 14:14:54;;;;;;;;;;;26.50;36.10;;;;;;5114301;28;948;-44
2022/05/28 14:17:27;;;;;;;;;;;26.50;36.20;;;;;;5115139;28;1009;-44
2022/05/28 14:19:56;;;;;;;;;;;26.50;36.10;;;;;;5112490;28;993;-40
2022/05/28 14:22:23;;;;;;;;;;;26.60;36.20;;;;;;5115891;28;945;-43
2022/05/28 14:24:52;;;;;;;;;;;26.60;36.20;;;;;;5114073;28;870;-42
2022/05/28 14:27:23;;;;;;;;;;;26.60;36.20;;;;;;5114024;28;1906;-40
2022/05/28 14:29:50;;;;;;;;;;;26.70;36.10;;;;;;5114141;28;1031;-43
2022/05/28 14:32:18;;;;;;;;;;;26.80;34.10;;;;;;5113840;28;1027;-42
2022/05/28 14:34:45;;;;;;;;;;;26.70;31.50;;;;;;5114714;28;992;-42
2022/05/28 14:37:22;;;;;;;;;;;26.60;29.30;;;;;;5115222;28;1021;-43
2022/05/28 14:39:49;;;;;;;;;;;26.60;29.00;;;;;;5114321;28;615;-45
2022/05/28 14:42:21;;;;;;;;;;;26.50;28.70;;;;;;5115444;28;988;-45
2022/05/28 14:44:49;;;;;;;;;;;26.50;27.90;;;;;;5114423;28;1028;-45
2022/05/28 14:47:20;;;;;;;;;;;26.40;27.60;;;;;;5116752;28;1970;-34
2022/05/28 14:49:49;;;;;;;;;;;26.40;27.60;;;;;;5119195;28;1023;-45
2022/05/28 14:52:18;;;;;;;;;;;26.40;27.90;;;;;;5118592;28;1134;-45
2022/05/28 14:54:49;;;;;;;;;;;26.40;28.40;;;;;;5119153;28;933;-45
2022/05/28 14:57:21;;;;;;;;;;;26.50;29.00;;;;;;5119822;28;981;-44
2022/05/28 14:59:48;;;;;;;;;;;26.50;29.20;;;;;;5118434;28;1126;-45
2022/05/28 15:02:21;;;;;;;;;;;26.60;29.10;;;;;;5119664;28;1120;-44
2022/05/28 15:04:48;;;;;;;;;;;26.60;28.90;;;;;;5111648;28;1637;-44